sensor_id;sensor_type;location;lat;lon;timestamp;temperature;humidity
14053;DHT22;7101;51.600;7.310;2024-01-15T00:01:08;1.00;99.90
14053;DHT22;7101;51.600;7.310;2024-01-15T00:03:35;1.00;99.90
14053;DHT22;7101;51.600;7.310;2024-01-15T00:06:02;1.00;99.90
14053;DHT22;7101;51.600;7.310;2024-01-15T00:08:30;1.00;99.90
14053;DHT22;7101;51.600;7.310;2024-01-15T00:10:57;1.00;99.90
14053;DHT22;7101;51.600;7.310;2024-01-15T00:13:24;1.00;99.90
14053;DHT22;7101;51.600;7.310;2024-01-15T00:15:51;1.00;99.90
14053;DHT22;7101;51.600;7.310;2024-01-15T00:18:17;1.00;99.90
14053;DHT22;7101;51.600;7.310;2024-01-15T00:20:44;1.00;99.90
14053;DHT22;7101;51.600;7.310;2024-01-15T00:23:11;1.00;99.90
14053;DHT22;7101;51.600;7.310;2024-01-15T00:25:40;1.10;99.90
14053;DHT22;7101;51.600;7.310;2024-01-15T00:28:07;1.10;99.90
14053;DHT22;7101;51.600;7.310;2024-01-15T00:30:34;1.10;99.90
14053;DHT22;7101;51.600;7.310;2024-01-15T00:33:01;1.10;99.90
14053;DHT22;7101;51.600;7.310;2024-01-15T00:35:28;1.10;99.90
14053;DHT22;7101;51.600;7.310;2024-01-15T00:37:54;1.10;99.90
14053;DHT22;7101;51.600;7.310;2024-01-15T00:40:23;1.10;99.90
14053;DHT22;7101;51.600;7.310;2024-01-15T00:42:53;1.10;99.90
14053;DHT22;7101;51.600;7.310;2024-01-15T00:45:20;1.10;99.90
14053;DHT22;7101;51.600;7.310;2024-01-15T00:47:47;1.10;99.90
14053;DHT22;7101;51.600;7.310;2024-01-15T00:50:13;1.10;99.90
14053;DHT22;7101;51.600;7.310;2024-01-15T00:52:40;1.10;99.90
14053;DHT22;7101;51.600;7.310;2024-01-15T00:55:07;1.10;99.90
14053;DHT22;7101;51.600;7.310;2024-01-15T00:57:35;1.10;99.90
14053;DHT22;7101;51.600;7.310;2024-01-15T01:00:06;1.20;99.90
14053;DHT22;7101;51.600;7.310;2024-01-15T01:02:34;1.10;99.90
14053;DHT22;7101;51.600;7.310;2024-01-15T01:05:01;1.10;99.90
14053;DHT22;7101;51.600;7.310;2024-01-15T01:07:28;1.10;99.90
14053;DHT22;7101;51.600;7.310;2024-01-15T01:09:55;1.10;99.90
14053;DHT22;7101;51.600;7.310;2024-01-15T01:12:22;1.20;99.90
14053;DHT22;7101;51.600;7.310;2024-01-15T01:14:49;1.20;99.90
14053;DHT22;7101;51.600;7.310;2024-01-15T01:17:17;1.20;99.90
14053;DHT22;7101;51.600;7.310;2024-01-15T01:19:44;1.20;99.90
14053;DHT22;7101;51.600;7.310;2024-01-15T01:22:10;1.20;99.90
14053;DHT22;7101;51.600;7.310;2024-01-15T01:24:37;1.20;99.90
14053;DHT22;7101;51.600;7.310;2024-01-15T01:27:04;1.20;99.90
14053;DHT22;7101;51.600;7.310;2024-01-15T01:29:31;1.20;99.90
14053;DHT22;7101;51.600;7.310;2024-01-15T01:31:58;1.10;99.90
14053;DHT22;7101;51.600;7.310;2024-01-15T01:34:26;1.00;99.90
14053;DHT22;7101;51.600;7.310;2024-01-15T01:36:53;1.00;99.90
14053;DHT22;7101;51.600;7.310;2024-01-15T01:39:20;1.00;99.90
14053;DHT22;7101;51.600;7.310;2024-01-15T01:41:46;1.10;99.90
14053;DHT22;7101;51.600;7.310;2024-01-15T01:44:13;1.00;99.90
14053;DHT22;7101;51.600;7.310;2024-01-15T01:46:41;1.00;99.90
14053;DHT22;7101;51.600;7.310;2024-01-15T01:49:09;1.00;99.90
14053;DHT22;7101;51.600;7.310;2024-01-15T01:51:37;1.00;99.90
14053;DHT22;7101;51.600;7.310;2024-01-15T01:54:05;1.00;99.90
14053;DHT22;7101;51.600;7.310;2024-01-15T01:56:33;1.00;99.90
14053;DHT22;7101;51.600;7.310;2024-01-15T01:59:01;1.00;99.90
14053;DHT22;7101;51.600;7.310;2024-01-15T02:01:28;1.00;99.90
14053;DHT22;7101;51.600;7.310;2024-01-15T02:03:56;1.00;99.90
14053;DHT22;7101;51.600;7.310;2024-01-15T02:06:23;1.00;99.90
14053;DHT22;7101;51.600;7.310;2024-01-15T02:08:51;1.10;99.90
14053;DHT22;7101;51.600;7.310;2024-01-15T02:11:18;1.00;99.90
14053;DHT22;7101;51.600;7.310;2024-01-15T02:13:45;1.00;99.90
14053;DHT22;7101;51.600;7.310;2024-01-15T02:16:12;1.00;99.90
14053;DHT22;7101;51.600;7.310;2024-01-15T02:18:40;1.00;99.90
14053;DHT22;7101;51.600;7.310;2024-01-15T02:21:07;1.00;99.90
14053;DHT22;7101;51.600;7.310;2024-01-15T02:23:35;1.00;99.90
14053;DHT22;7101;51.600;7.310;2024-01-15T02:26:02;1.10;99.90
14053;DHT22;7101;51.600;7.310;2024-01-15T02:28:30;1.10;99.90
14053;DHT22;7101;51.600;7.310;2024-01-15T02:30:57;1.10;99.90
14053;DHT22;7101;51.600;7.310;2024-01-15T02:33:24;1.10;99.90
14053;DHT22;7101;51.600;7.310;2024-01-15T02:35:51;1.10;99.90
14053;DHT22;7101;51.600;7.310;2024-01-15T02:38:18;1.10;99.90
14053;DHT22;7101;51.600;7.310;2024-01-15T02:40:46;1.10;99.90
14053;DHT22;7101;51.600;7.310;2024-01-15T02:43:13;1.10;99.90
14053;DHT22;7101;51.600;7.310;2024-01-15T02:45:40;1.10;99.90
14053;DHT22;7101;51.600;7.310;2024-01-15T02:48:09;1.10;99.90
14053;DHT22;7101;51.600;7.310;2024-01-15T02:50:36;1.00;99.90
14053;DHT22;7101;51.600;7.310;2024-01-15T02:53:03;1.00;99.90
14053;DHT22;7101;51.600;7.310;2024-01-15T02:55:32;1.00;99.90
14053;DHT22;7101;51.600;7.310;2024-01-15T02:58:01;1.00;99.90
14053;DHT22;7101;51.600;7.310;2024-01-15T03:00:28;1.00;99.90
14053;DHT22;7101;51.600;7.310;2024-01-15T03:02:54;1.00;99.90
14053;DHT22;7101;51.600;7.310;2024-01-15T03:05:21;1.00;99.90
14053;DHT22;7101;51.600;7.310;2024-01-15T03:07:48;1.00;99.90
14053;DHT22;7101;51.600;7.310;2024-01-15T03:10:15;1.00;99.90
14053;DHT22;7101;51.600;7.310;2024-01-15T03:12:42;1.00;99.90
14053;DHT22;7101;51.600;7.310;2024-01-15T03:15:10;1.00;99.90
14053;DHT22;7101;51.600;7.310;2024-01-15T03:17:37;1.00;99.90
14053;DHT22;7101;51.600;7.310;2024-01-15T03:20:04;1.00;99.90
14053;DHT22;7101;51.600;7.310;2024-01-15T03:22:31;1.00;99.90
14053;DHT22;7101;51.600;7.310;2024-01-15T03:24:58;1.00;99.90
14053;DHT22;7101;51.600;7.310;2024-01-15T03:27:25;1.10;99.90
14053;DHT22;7101;51.600;7.310;2024-01-15T03:29:52;1.10;99.90
14053;DHT22;7101;51.600;7.310;2024-01-15T03:32:20;1.10;99.90
14053;DHT22;7101;51.600;7.310;2024-01-15T03:34:47;1.10;99.90
14053;DHT22;7101;51.600;7.310;2024-01-15T03:37:14;1.10;99.90
14053;DHT22;7101;51.600;7.310;2024-01-15T03:39:40;1.10;99.90
14053;DHT22;7101;51.600;7.310;2024-01-15T03:42:07;1.10;99.90
14053;DHT22;7101;51.600;7.310;2024-01-15T03:44:34;1.10;99.90
14053;DHT22;7101;51.600;7.310;2024-01-15T03:47:01;1.10;99.90
14053;DHT22;7101;51.600;7.310;2024-01-15T03:49:29;1.10;99.90
14053;DHT22;7101;51.600;7.310;2024-01-15T03:51:56;1.10;99.90
14053;DHT22;7101;51.600;7.310;2024-01-15T03:54:22;1.10;99.90
14053;DHT22;7101;51.600;7.310;2024-01-15T03:56:49;1.10;99.90
14053;DHT22;7101;51.600;7.310;2024-01-15T03:59:16;1.10;99.90
14053;DHT22;7101;51.600;7.310;2024-01-15T04:01:48;1.20;99.90
14053;DHT22;7101;51.600;7.310;2024-01-15T04:04:15;1.20;99.90
14053;DHT22;7101;51.600;7.310;2024-01-15T04:06:43;1.20;99.90
14053;DHT22;7101;51.600;7.310;2024-01-15T04:09:11;1.10;99.90
14053;DHT22;7101;51.600;7.310;2024-01-15T04:11:38;1.10;99.90
14053;DHT22;7101;51.600;7.310;2024-01-15T04:14:05;1.20;99.90
14053;DHT22;7101;51.600;7.310;2024-01-15T04:16:32;1.20;99.90
14053;DHT22;7101;51.600;7.310;2024-01-15T04:18:58;1.10;99.90
14053;DHT22;7101;51.600;7.310;2024-01-15T04:21:25;1.10;99.90
14053;DHT22;7101;51.600;7.310;2024-01-15T04:23:53;1.10;99.90
14053;DHT22;7101;51.600;7.310;2024-01-15T04:26:21;1.10;99.90
14053;DHT22;7101;51.600;7.310;2024-01-15T04:28:48;1.10;99.90
14053;DHT22;7101;51.600;7.310;2024-01-15T04:31:21;1.20;99.90
14053;DHT22;7101;51.600;7.310;2024-01-15T04:33:48;1.10;99.90
14053;DHT22;7101;51.600;7.310;2024-01-15T04:36:15;1.10;99.90
14053;DHT22;7101;51.600;7.310;2024-01-15T04:38:42;1.10;99.90
14053;DHT22;7101;51.600;7.310;2024-01-15T04:41:11;1.20;99.90
14053;DHT22;7101;51.600;7.310;2024-01-15T04:43:38;1.10;99.90
14053;DHT22;7101;51.600;7.310;2024-01-15T04:46:05;1.20;99.90
14053;DHT22;7101;51.600;7.310;2024-01-15T04:48:34;1.20;99.90
14053;DHT22;7101;51.600;7.310;2024-01-15T04:51:04;1.20;99.90
14053;DHT22;7101;51.600;7.310;2024-01-15T04:53:32;1.20;99.90
14053;DHT22;7101;51.600;7.310;2024-01-15T04:55:59;1.20;99.90
14053;DHT22;7101;51.600;7.310;2024-01-15T04:58:28;1.30;99.90
14053;DHT22;7101;51.600;7.310;2024-01-15T05:00:55;1.30;99.90
14053;DHT22;7101;51.600;7.310;2024-01-15T05:03:22;1.30;99.90
14053;DHT22;7101;51.600;7.310;2024-01-15T05:05:49;1.30;99.90
14053;DHT22;7101;51.600;7.310;2024-01-15T05:08:16;1.20;99.90
14053;DHT22;7101;51.600;7.310;2024-01-15T05:10:41;1.20;99.90
14053;DHT22;7101;51.600;7.310;2024-01-15T05:13:08;1.20;99.90
14053;DHT22;7101;51.600;7.310;2024-01-15T05:15:36;1.30;99.90
14053;DHT22;7101;51.600;7.310;2024-01-15T05:18:03;1.30;99.90
14053;DHT22;7101;51.600;7.310;2024-01-15T05:20:30;1.20;99.90
14053;DHT22;7101;51.600;7.310;2024-01-15T05:22:57;1.20;99.90
14053;DHT22;7101;51.600;7.310;2024-01-15T05:25:24;1.20;99.90
14053;DHT22;7101;51.600;7.310;2024-01-15T05:27:51;1.20;99.90
14053;DHT22;7101;51.600;7.310;2024-01-15T05:30:18;1.20;99.90
14053;DHT22;7101;51.600;7.310;2024-01-15T05:32:46;1.30;99.90
14053;DHT22;7101;51.600;7.310;2024-01-15T05:35:12;1.30;99.90
14053;DHT22;7101;51.600;7.310;2024-01-15T05:37:43;1.30;99.90
14053;DHT22;7101;51.600;7.310;2024-01-15T05:40:11;1.40;99.90
14053;DHT22;7101;51.600;7.310;2024-01-15T05:42:39;1.40;99.90
14053;DHT22;7101;51.600;7.310;2024-01-15T05:45:06;1.40;99.90
14053;DHT22;7101;51.600;7.310;2024-01-15T05:47:33;1.40;99.90
14053;DHT22;7101;51.600;7.310;2024-01-15T05:50:02;1.40;99.90
14053;DHT22;7101;51.600;7.310;2024-01-15T05:52:28;1.40;99.90
14053;DHT22;7101;51.600;7.310;2024-01-15T05:54:55;1.40;99.90
14053;DHT22;7101;51.600;7.310;2024-01-15T05:57:22;1.40;99.90
14053;DHT22;7101;51.600;7.310;2024-01-15T05:59:50;1.40;99.90
14053;DHT22;7101;51.600;7.310;2024-01-15T06:02:17;1.40;99.90
14053;DHT22;7101;51.600;7.310;2024-01-15T06:04:43;1.40;99.90
14053;DHT22;7101;51.600;7.310;2024-01-15T06:07:12;1.40;99.90
14053;DHT22;7101;51.600;7.310;2024-01-15T06:09:38;1.40;99.90
14053;DHT22;7101;51.600;7.310;2024-01-15T06:12:07;1.40;99.90
14053;DHT22;7101;51.600;7.310;2024-01-15T06:14:34;1.40;99.90
14053;DHT22;7101;51.600;7.310;2024-01-15T06:17:01;1.40;99.90
14053;DHT22;7101;51.600;7.310;2024-01-15T06:19:28;1.40;99.90
14053;DHT22;7101;51.600;7.310;2024-01-15T06:21:55;1.40;99.90
14053;DHT22;7101;51.600;7.310;2024-01-15T06:24:23;1.40;99.90
14053;DHT22;7101;51.600;7.310;2024-01-15T06:26:50;1.30;99.90
14053;DHT22;7101;51.600;7.310;2024-01-15T06:29:18;1.30;99.90
14053;DHT22;7101;51.600;7.310;2024-01-15T06:31:45;1.30;99.90
14053;DHT22;7101;51.600;7.310;2024-01-15T06:34:12;1.30;99.90
14053;DHT22;7101;51.600;7.310;2024-01-15T06:36:39;1.30;99.90
14053;DHT22;7101;51.600;7.310;2024-01-15T06:39:05;1.30;99.90
14053;DHT22;7101;51.600;7.310;2024-01-15T06:41:34;1.30;99.90
14053;DHT22;7101;51.600;7.310;2024-01-15T06:44:01;1.30;99.90
14053;DHT22;7101;51.600;7.310;2024-01-15T06:46:28;1.40;99.90
14053;DHT22;7101;51.600;7.310;2024-01-15T06:48:55;1.30;99.90
14053;DHT22;7101;51.600;7.310;2024-01-15T06:51:21;1.40;99.90
14053;DHT22;7101;51.600;7.310;2024-01-15T06:53:48;1.40;99.90
14053;DHT22;7101;51.600;7.310;2024-01-15T06:56:15;1.40;99.90
14053;DHT22;7101;51.600;7.310;2024-01-15T06:58:43;1.40;99.90
14053;DHT22;7101;51.600;7.310;2024-01-15T07:01:11;1.40;99.90
14053;DHT22;7101;51.600;7.310;2024-01-15T07:03:38;1.40;99.90
14053;DHT22;7101;51.600;7.310;2024-01-15T07:06:05;1.50;99.90
14053;DHT22;7101;51.600;7.310;2024-01-15T07:08:32;1.40;99.90
14053;DHT22;7101;51.600;7.310;2024-01-15T07:10:59;1.40;99.90
14053;DHT22;7101;51.600;7.310;2024-01-15T07:13:26;1.40;99.90
14053;DHT22;7101;51.600;7.310;2024-01-15T07:15:54;1.40;99.90
14053;DHT22;7101;51.600;7.310;2024-01-15T07:18:20;1.40;99.90
14053;DHT22;7101;51.600;7.310;2024-01-15T07:20:47;1.40;99.90
14053;DHT22;7101;51.600;7.310;2024-01-15T07:23:14;1.40;99.90
14053;DHT22;7101;51.600;7.310;2024-01-15T07:25:42;1.40;99.90
14053;DHT22;7101;51.600;7.310;2024-01-15T07:28:09;1.40;99.90
14053;DHT22;7101;51.600;7.310;2024-01-15T07:30:36;1.50;99.90
14053;DHT22;7101;51.600;7.310;2024-01-15T07:33:05;1.50;99.90
14053;DHT22;7101;51.600;7.310;2024-01-15T07:35:32;1.50;99.90
14053;DHT22;7101;51.600;7.310;2024-01-15T07:37:59;1.50;99.90
14053;DHT22;7101;51.600;7.310;2024-01-15T07:40:26;1.50;99.90
14053;DHT22;7101;51.600;7.310;2024-01-15T07:42:53;1.50;99.90
14053;DHT22;7101;51.600;7.310;2024-01-15T07:45:19;1.50;99.90
14053;DHT22;7101;51.600;7.310;2024-01-15T07:47:46;1.50;99.90
14053;DHT22;7101;51.600;7.310;2024-01-15T07:50:16;1.50;99.90
14053;DHT22;7101;51.600;7.310;2024-01-15T07:52:42;1.50;99.90
14053;DHT22;7101;51.600;7.310;2024-01-15T07:55:13;1.50;99.90
14053;DHT22;7101;51.600;7.310;2024-01-15T07:57:40;1.50;99.90
14053;DHT22;7101;51.600;7.310;2024-01-15T08:00:09;1.50;99.90
14053;DHT22;7101;51.600;7.310;2024-01-15T08:02:36;1.50;99.90
14053;DHT22;7101;51.600;7.310;2024-01-15T08:05:03;1.40;99.90
14053;DHT22;7101;51.600;7.310;2024-01-15T08:07:32;1.40;99.90
14053;DHT22;7101;51.600;7.310;2024-01-15T08:09:59;1.40;99.90
14053;DHT22;7101;51.600;7.310;2024-01-15T08:12:25;1.40;99.90
14053;DHT22;7101;51.600;7.310;2024-01-15T08:14:52;1.40;99.90
14053;DHT22;7101;51.600;7.310;2024-01-15T08:17:19;1.40;99.90
14053;DHT22;7101;51.600;7.310;2024-01-15T08:19:46;1.40;99.90
14053;DHT22;7101;51.600;7.310;2024-01-15T08:22:13;1.40;99.90
14053;DHT22;7101;51.600;7.310;2024-01-15T08:24:41;1.40;99.90
14053;DHT22;7101;51.600;7.310;2024-01-15T08:27:08;1.40;99.90
14053;DHT22;7101;51.600;7.310;2024-01-15T08:29:35;1.40;99.90
14053;DHT22;7101;51.600;7.310;2024-01-15T08:32:02;1.30;99.90
14053;DHT22;7101;51.600;7.310;2024-01-15T08:34:28;1.30;99.90
14053;DHT22;7101;51.600;7.310;2024-01-15T08:36:56;1.20;99.90
14053;DHT22;7101;51.600;7.310;2024-01-15T08:39:23;1.20;99.90
14053;DHT22;7101;51.600;7.310;2024-01-15T08:41:51;1.20;99.90
14053;DHT22;7101;51.600;7.310;2024-01-15T08:44:18;1.20;99.90
14053;DHT22;7101;51.600;7.310;2024-01-15T08:46:46;1.20;99.90
14053;DHT22;7101;51.600;7.310;2024-01-15T08:49:14;1.20;99.90
14053;DHT22;7101;51.600;7.310;2024-01-15T08:51:40;1.30;99.90
14053;DHT22;7101;51.600;7.310;2024-01-15T08:54:07;1.30;99.90
14053;DHT22;7101;51.600;7.310;2024-01-15T08:56:34;1.30;99.90
14053;DHT22;7101;51.600;7.310;2024-01-15T08:59:02;1.40;99.90
14053;DHT22;7101;51.600;7.310;2024-01-15T09:01:29;1.40;99.90
14053;DHT22;7101;51.600;7.310;2024-01-15T09:03:56;1.40;99.90
14053;DHT22;7101;51.600;7.310;2024-01-15T09:06:25;1.40;99.90
14053;DHT22;7101;51.600;7.310;2024-01-15T09:08:52;1.40;99.90
14053;DHT22;7101;51.600;7.310;2024-01-15T09:11:18;1.50;99.90
14053;DHT22;7101;51.600;7.310;2024-01-15T09:13:45;1.50;99.90
14053;DHT22;7101;51.600;7.310;2024-01-15T09:16:13;1.50;99.90
14053;DHT22;7101;51.600;7.310;2024-01-15T09:18:40;1.50;99.90
14053;DHT22;7101;51.600;7.310;2024-01-15T09:21:07;1.40;99.90
14053;DHT22;7101;51.600;7.310;2024-01-15T09:23:34;1.40;99.90
14053;DHT22;7101;51.600;7.310;2024-01-15T09:26:01;1.40;99.90
14053;DHT22;7101;51.600;7.310;2024-01-15T09:28:28;1.50;99.90
14053;DHT22;7101;51.600;7.310;2024-01-15T09:30:54;1.40;99.90
14053;DHT22;7101;51.600;7.310;2024-01-15T09:33:22;1.30;99.90
14053;DHT22;7101;51.600;7.310;2024-01-15T09:35:49;1.30;99.90
14053;DHT22;7101;51.600;7.310;2024-01-15T09:38:17;1.30;99.90
14053;DHT22;7101;51.600;7.310;2024-01-15T09:40:45;1.30;99.90
14053;DHT22;7101;51.600;7.310;2024-01-15T09:43:13;1.20;99.90
14053;DHT22;7101;51.600;7.310;2024-01-15T09:45:41;1.30;99.90
14053;DHT22;7101;51.600;7.310;2024-01-15T09:48:08;1.30;99.90
14053;DHT22;7101;51.600;7.310;2024-01-15T09:50:37;1.30;99.90
14053;DHT22;7101;51.600;7.310;2024-01-15T09:53:05;1.30;99.90
14053;DHT22;7101;51.600;7.310;2024-01-15T09:55:33;1.30;99.90
14053;DHT22;7101;51.600;7.310;2024-01-15T09:58:03;1.40;99.90
14053;DHT22;7101;51.600;7.310;2024-01-15T10:00:30;1.50;99.90
14053;DHT22;7101;51.600;7.310;2024-01-15T10:02:58;1.50;99.90
14053;DHT22;7101;51.600;7.310;2024-01-15T10:05:25;1.50;99.90
14053;DHT22;7101;51.600;7.310;2024-01-15T10:07:54;1.50;99.90
14053;DHT22;7101;51.600;7.310;2024-01-15T10:10:23;1.50;99.90
14053;DHT22;7101;51.600;7.310;2024-01-15T10:12:50;1.50;99.90
14053;DHT22;7101;51.600;7.310;2024-01-15T10:15:17;1.50;99.90
14053;DHT22;7101;51.600;7.310;2024-01-15T10:17:43;1.50;99.90
14053;DHT22;7101;51.600;7.310;2024-01-15T10:20:11;1.40;99.90
14053;DHT22;7101;51.600;7.310;2024-01-15T10:22:40;1.40;99.90
14053;DHT22;7101;51.600;7.310;2024-01-15T10:25:11;1.50;99.90
14053;DHT22;7101;51.600;7.310;2024-01-15T10:27:38;1.40;99.90
14053;DHT22;7101;51.600;7.310;2024-01-15T10:30:07;1.50;99.90
14053;DHT22;7101;51.600;7.310;2024-01-15T10:32:34;1.50;99.90
14053;DHT22;7101;51.600;7.310;2024-01-15T10:35:01;1.50;99.90
14053;DHT22;7101;51.600;7.310;2024-01-15T10:37:28;1.60;99.90
14053;DHT22;7101;51.600;7.310;2024-01-15T10:39:55;1.60;99.90
14053;DHT22;7101;51.600;7.310;2024-01-15T10:42:23;1.70;99.90
14053;DHT22;7101;51.600;7.310;2024-01-15T10:44:49;1.80;99.90
14053;DHT22;7101;51.600;7.310;2024-01-15T10:47:16;1.90;99.90
14053;DHT22;7101;51.600;7.310;2024-01-15T10:49:45;2.10;99.90
14053;DHT22;7101;51.600;7.310;2024-01-15T10:52:15;2.00;99.90
14053;DHT22;7101;51.600;7.310;2024-01-15T10:54:43;1.80;99.90
14053;DHT22;7101;51.600;7.310;2024-01-15T10:57:11;1.50;99.90
14053;DHT22;7101;51.600;7.310;2024-01-15T10:59:40;1.50;99.90
14053;DHT22;7101;51.600;7.310;2024-01-15T11:02:07;1.50;99.90
14053;DHT22;7101;51.600;7.310;2024-01-15T11:04:35;1.60;99.90
14053;DHT22;7101;51.600;7.310;2024-01-15T11:07:03;1.60;99.90
14053;DHT22;7101;51.600;7.310;2024-01-15T11:09:33;1.80;99.90
14053;DHT22;7101;51.600;7.310;2024-01-15T11:12:11;1.90;99.90
14053;DHT22;7101;51.600;7.310;2024-01-15T11:14:45;2.20;99.90
14053;DHT22;7101;51.600;7.310;2024-01-15T11:17:13;2.30;99.90
14053;DHT22;7101;51.600;7.310;2024-01-15T11:19:43;2.40;99.90
14053;DHT22;7101;51.600;7.310;2024-01-15T11:25:02;2.70;99.90
14053;DHT22;7101;51.600;7.310;2024-01-15T11:27:43;2.60;99.90
14053;DHT22;7101;51.600;7.310;2024-01-15T11:30:12;2.50;99.90
14053;DHT22;7101;51.600;7.310;2024-01-15T11:32:39;2.50;99.90
14053;DHT22;7101;51.600;7.310;2024-01-15T11:35:08;2.40;99.90
14053;DHT22;7101;51.600;7.310;2024-01-15T11:37:57;2.30;99.90
14053;DHT22;7101;51.600;7.310;2024-01-15T11:40:46;2.20;99.90
14053;DHT22;7101;51.600;7.310;2024-01-15T11:43:15;2.50;99.90
14053;DHT22;7101;51.600;7.310;2024-01-15T11:45:52;2.60;99.90
14053;DHT22;7101;51.600;7.310;2024-01-15T11:48:43;2.60;99.90
14053;DHT22;7101;51.600;7.310;2024-01-15T11:51:24;2.70;99.90
14053;DHT22;7101;51.600;7.310;2024-01-15T11:53:57;2.70;99.90
14053;DHT22;7101;51.600;7.310;2024-01-15T11:56:28;2.60;99.90
14053;DHT22;7101;51.600;7.310;2024-01-15T11:58:55;2.40;99.90
14053;DHT22;7101;51.600;7.310;2024-01-15T12:01:23;2.40;99.90
14053;DHT22;7101;51.600;7.310;2024-01-15T12:03:55;2.40;99.90
14053;DHT22;7101;51.600;7.310;2024-01-15T12:06:24;2.40;99.90
14053;DHT22;7101;51.600;7.310;2024-01-15T12:09:15;2.30;99.90
14053;DHT22;7101;51.600;7.310;2024-01-15T12:11:50;2.20;99.90
14053;DHT22;7101;51.600;7.310;2024-01-15T12:14:17;2.20;99.90
14053;DHT22;7101;51.600;7.310;2024-01-15T12:17:12;2.10;99.90
14053;DHT22;7101;51.600;7.310;2024-01-15T12:19:40;2.00;99.90
14053;DHT22;7101;51.600;7.310;2024-01-15T12:22:06;2.10;99.90
14053;DHT22;7101;51.600;7.310;2024-01-15T12:24:33;2.20;99.90
14053;DHT22;7101;51.600;7.310;2024-01-15T12:27:02;2.30;99.90
14053;DHT22;7101;51.600;7.310;2024-01-15T12:29:30;2.40;99.90
14053;DHT22;7101;51.600;7.310;2024-01-15T12:31:57;2.40;99.90
14053;DHT22;7101;51.600;7.310;2024-01-15T12:34:28;2.30;99.90
14053;DHT22;7101;51.600;7.310;2024-01-15T12:37:00;2.30;99.90
14053;DHT22;7101;51.600;7.310;2024-01-15T12:39:31;2.30;99.90
14053;DHT22;7101;51.600;7.310;2024-01-15T12:41:58;2.40;99.90
14053;DHT22;7101;51.600;7.310;2024-01-15T12:44:29;2.40;99.90
14053;DHT22;7101;51.600;7.310;2024-01-15T12:46:57;2.40;99.90
14053;DHT22;7101;51.600;7.310;2024-01-15T12:49:25;2.40;99.90
14053;DHT22;7101;51.600;7.310;2024-01-15T12:51:52;2.50;99.90
14053;DHT22;7101;51.600;7.310;2024-01-15T12:54:19;2.40;99.90
14053;DHT22;7101;51.600;7.310;2024-01-15T12:56:46;2.30;99.90
14053;DHT22;7101;51.600;7.310;2024-01-15T12:59:13;2.30;99.90
14053;DHT22;7101;51.600;7.310;2024-01-15T13:01:39;2.30;99.90
14053;DHT22;7101;51.600;7.310;2024-01-15T13:04:07;2.40;99.90
14053;DHT22;7101;51.600;7.310;2024-01-15T13:06:36;2.50;99.90
14053;DHT22;7101;51.600;7.310;2024-01-15T13:09:03;2.50;99.90
14053;DHT22;7101;51.600;7.310;2024-01-15T13:11:31;2.50;99.90
14053;DHT22;7101;51.600;7.310;2024-01-15T13:13:58;2.50;99.90
14053;DHT22;7101;51.600;7.310;2024-01-15T13:16:25;2.40;99.90
14053;DHT22;7101;51.600;7.310;2024-01-15T13:18:54;2.40;99.90
14053;DHT22;7101;51.600;7.310;2024-01-15T13:21:21;2.30;99.90
14053;DHT22;7101;51.600;7.310;2024-01-15T13:23:49;2.20;99.90
14053;DHT22;7101;51.600;7.310;2024-01-15T13:26:16;2.20;99.90
14053;DHT22;7101;51.600;7.310;2024-01-15T13:28:44;2.20;99.90
14053;DHT22;7101;51.600;7.310;2024-01-15T13:31:11;2.20;99.90
14053;DHT22;7101;51.600;7.310;2024-01-15T13:33:38;2.20;99.90
14053;DHT22;7101;51.600;7.310;2024-01-15T13:36:05;2.20;99.90
14053;DHT22;7101;51.600;7.310;2024-01-15T13:38:36;2.30;99.90
14053;DHT22;7101;51.600;7.310;2024-01-15T13:41:05;2.40;99.90
14053;DHT22;7101;51.600;7.310;2024-01-15T13:43:32;2.40;99.90
14053;DHT22;7101;51.600;7.310;2024-01-15T13:45:58;2.40;99.90
14053;DHT22;7101;51.600;7.310;2024-01-15T13:48:25;2.40;99.90
14053;DHT22;7101;51.600;7.310;2024-01-15T13:50:52;2.30;99.90
14053;DHT22;7101;51.600;7.310;2024-01-15T13:53:19;2.40;99.90
14053;DHT22;7101;51.600;7.310;2024-01-15T13:55:46;2.30;99.90
14053;DHT22;7101;51.600;7.310;2024-01-15T13:58:14;2.30;99.90
14053;DHT22;7101;51.600;7.310;2024-01-15T14:00:41;2.30;99.90
14053;DHT22;7101;51.600;7.310;2024-01-15T14:03:09;2.40;99.90
14053;DHT22;7101;51.600;7.310;2024-01-15T14:05:36;2.40;99.90
14053;DHT22;7101;51.600;7.310;2024-01-15T14:08:04;2.40;99.90
14053;DHT22;7101;51.600;7.310;2024-01-15T14:10:31;2.40;99.90
14053;DHT22;7101;51.600;7.310;2024-01-15T14:12:58;2.40;99.90
14053;DHT22;7101;51.600;7.310;2024-01-15T14:15:26;2.40;99.90
14053;DHT22;7101;51.600;7.310;2024-01-15T14:17:53;2.40;99.90
14053;DHT22;7101;51.600;7.310;2024-01-15T14:20:19;2.30;99.90
14053;DHT22;7101;51.600;7.310;2024-01-15T14:22:46;2.30;99.90
14053;DHT22;7101;51.600;7.310;2024-01-15T14:25:13;2.30;99.90
14053;DHT22;7101;51.600;7.310;2024-01-15T14:27:40;2.20;99.90
14053;DHT22;7101;51.600;7.310;2024-01-15T14:30:07;2.20;99.90
14053;DHT22;7101;51.600;7.310;2024-01-15T14:32:36;2.10;99.90
14053;DHT22;7101;51.600;7.310;2024-01-15T14:35:03;2.00;99.90
14053;DHT22;7101;51.600;7.310;2024-01-15T14:37:31;2.00;99.90
14053;DHT22;7101;51.600;7.310;2024-01-15T14:39:58;1.90;99.90
14053;DHT22;7101;51.600;7.310;2024-01-15T14:42:24;1.80;99.90
14053;DHT22;7101;51.600;7.310;2024-01-15T14:44:51;1.80;99.90
14053;DHT22;7101;51.600;7.310;2024-01-15T14:47:18;1.80;99.90
14053;DHT22;7101;51.600;7.310;2024-01-15T14:49:50;1.80;99.90
14053;DHT22;7101;51.600;7.310;2024-01-15T14:52:17;1.70;99.90
14053;DHT22;7101;51.600;7.310;2024-01-15T14:54:44;1.70;99.90
14053;DHT22;7101;51.600;7.310;2024-01-15T14:57:10;1.70;99.90
14053;DHT22;7101;51.600;7.310;2024-01-15T14:59:37;1.70;99.90
14053;DHT22;7101;51.600;7.310;2024-01-15T15:02:04;1.70;99.90
14053;DHT22;7101;51.600;7.310;2024-01-15T15:04:32;1.70;99.90
14053;DHT22;7101;51.600;7.310;2024-01-15T15:07:00;1.60;99.90
14053;DHT22;7101;51.600;7.310;2024-01-15T15:09:27;1.60;99.90
14053;DHT22;7101;51.600;7.310;2024-01-15T15:11:54;1.60;99.90
14053;DHT22;7101;51.600;7.310;2024-01-15T15:14:21;1.70;99.90
14053;DHT22;7101;51.600;7.310;2024-01-15T15:16:47;1.70;99.90
14053;DHT22;7101;51.600;7.310;2024-01-15T15:19:17;1.70;99.90
14053;DHT22;7101;51.600;7.310;2024-01-15T15:21:44;1.70;99.90
14053;DHT22;7101;51.600;7.310;2024-01-15T15:24:13;1.60;99.90
14053;DHT22;7101;51.600;7.310;2024-01-15T15:26:39;1.50;99.90
14053;DHT22;7101;51.600;7.310;2024-01-15T15:29:06;1.40;99.90
14053;DHT22;7101;51.600;7.310;2024-01-15T15:31:33;1.40;99.90
14053;DHT22;7101;51.600;7.310;2024-01-15T15:34:00;1.40;99.90
14053;DHT22;7101;51.600;7.310;2024-01-15T15:36:26;1.30;99.90
14053;DHT22;7101;51.600;7.310;2024-01-15T15:38:53;1.20;99.90
14053;DHT22;7101;51.600;7.310;2024-01-15T15:41:22;1.20;99.90
14053;DHT22;7101;51.600;7.310;2024-01-15T15:43:51;1.20;99.90
14053;DHT22;7101;51.600;7.310;2024-01-15T15:46:18;1.10;99.90
14053;DHT22;7101;51.600;7.310;2024-01-15T15:48:45;1.10;99.90
14053;DHT22;7101;51.600;7.310;2024-01-15T15:51:12;1.10;99.90
14053;DHT22;7101;51.600;7.310;2024-01-15T15:53:38;1.10;99.90
14053;DHT22;7101;51.600;7.310;2024-01-15T15:56:06;1.00;99.90
14053;DHT22;7101;51.600;7.310;2024-01-15T15:58:34;1.10;99.90
14053;DHT22;7101;51.600;7.310;2024-01-15T16:01:01;1.00;99.90
14053;DHT22;7101;51.600;7.310;2024-01-15T16:03:27;1.00;99.90
14053;DHT22;7101;51.600;7.310;2024-01-15T16:05:54;1.00;99.90
14053;DHT22;7101;51.600;7.310;2024-01-15T16:08:21;0.90;99.90